^^

Metar (rayon 200 km actualisée toutes les 30 minutes)






LFBU - Brie/Champniers, France
Distance de la station: SSE 07km
Mise à jour: 30/10/2014 17:30
partiellement nuageux
partiellement nuageux
 Wind from SE
Vent: SE 6 km/h
Température: 19°C
Point de Rosée: 10°C
Humidité: 56%
Baromètre: 1021 hPa
Nuages: partiellement nuageux
Visibilité: 10 km
2014/10/30 16:30 LFBU 301630Z AUTO 13003KT 9999 NSC 19/10 Q1021
LFBG - Cognac/Chateaubernard, France
Distance de la station: OSO 35km
Mise à jour: 30/10/2014 17:30
partiellement nuageux
partiellement nuageux
 Wind from ESE
Vent: ESE 7 km/h
Température: 20°C
Point de Rosée: 10°C
Humidité: 53%
Baromètre: 1020 hPa
Nuages: partiellement nuageux
Visibilité: 10 km
2014/10/30 16:30 LFBG 301630Z AUTO 12004KT 9999 NSC 20/10 Q1020
 
LFBL - Limoges/Bellegarde, France
Distance de la station: E 82km
Mise à jour: 30/10/2014 17:30
partiellement nuageux
partiellement nuageux
 Wind from SE
Vent: SE 6 km/h
Température: 18°C
Point de Rosée: 7°C
Humidité: 49%
Baromètre: 1022 hPa
Nuages: partiellement nuageux
Visibilité: 10 km
2014/10/30 16:30 LFBL 301630Z AUTO 14003KT 9999 NSC 18/07 Q1022
LFBI - Poitiers/France
Distance de la station: N 93km
Mise à jour: 30/10/2014 17:30
partiellement nuageux
partiellement nuageux
 Wind from SE
Vent: SE 2 km/h
Température: 19°C
Point de Rosée: 11°C
Humidité: 60%
Baromètre: 1021 hPa
Nuages: partiellement nuageux
Visibilité: 10 km
2014/10/30 16:30 LFBI 301630Z AUTO 14001KT 9999 NSC 19/11 Q1021
 
LFBH - La Rochelle/France
Distance de la station: ONO 106km
Mise à jour: 30/10/2014 17:30
partiellement nuageux
partiellement nuageux
 Wind from SE
Vent: SE 6 km/h
Température: 20°C
Point de Rosée: 11°C
Humidité: 56%
Baromètre: 1020 hPa
Nuages: partiellement nuageux
Visibilité: 10 km
2014/10/30 16:30 LFBH 301630Z AUTO 13003KT 9999 NSC 20/11 Q1020
LFBE - Bergerac/France
Distance de la station: SSE 107km
Mise à jour: 30/10/2014 17:30
partiellement nuageux
partiellement nuageux
 Wind from ESE
Vent: ESE 6 km/h
Température: 20°C
Point de Rosée: 8°C
Humidité: 46%
Baromètre: 1021 hPa
Nuages: partiellement nuageux
Visibilité: 10 km
2014/10/30 16:30 LFBE 301630Z AUTO 11003KT 9999 NSC 20/08 Q1021
 
LFBD - Bordeaux/France
Distance de la station: SSO 121km
Mise à jour: 30/10/2014 17:30
partiellement nuageux
partiellement nuageux
 Wind from E
Vent: E 11 km/h
Température: 22°C
Point de Rosée: 12°C
Humidité: 53%
Baromètre: 1020 hPa
Nuages: partiellement nuageux
Visibilité: 10 km
2014/10/30 16:30 LFBD 301630Z AUTO 10006KT 9999 NSC 22/12 Q1020
LFRI - La Roche-sur-Yon/France
Distance de la station: NO 156km
Mise à jour: 30/10/2014 17:30
partiellement nuageux
partiellement nuageux
 Wind from ESE
Vent: ESE 7 km/h
Température: 19°C
Point de Rosée: 12°C
Humidité: 64%
Baromètre: 1020 hPa
Nuages: partiellement nuageux
Visibilité: 10 km
2014/10/30 16:30 LFRI 301630Z AUTO 12004KT 9999 NSC 19/12 Q1020
 
LFBC - Cazaux/France
Distance de la station: SO 167km
Mise à jour: 30/10/2014 17:30
partiellement nuageux
partiellement nuageux
 Wind from NNO
Vent: NNO 6 km/h
Température: 22°C
Point de Rosée: 13°C
Humidité: 57%
Baromètre: 1019 hPa
Nuages: partiellement nuageux
Visibilité: 10 km
2014/10/30 16:30 LFBC 301630Z AUTO 33003KT 9999 NSC 22/13 Q1019
LFLX - Chateauroux/France
Distance de la station: NE 174km
Mise à jour: 30/10/2014 17:30
clair
clair
 Wind from variable
Vent: variable 2 km/h
Température: 18°C
Point de Rosée: 13°C
Humidité: 73%
Baromètre: 1022 hPa
Récapitulatifs: clair
Visibilité: supérieure à 10 km
2014/10/30 16:30 LFLX 301630Z VRB01KT CAVOK 18/13 Q1022 NOSIG
 
LFBA - Agen/France
Distance de la station: SSE 179km
Mise à jour: 30/10/2014 17:30
partiellement nuageux
partiellement nuageux
 Wind from E
Vent: E 7 km/h
Température: 20°C
Point de Rosée: 9°C
Humidité: 49%
Baromètre: 1020 hPa
Nuages: partiellement nuageux
Visibilité: 10 km
2014/10/30 16:30 LFBA 301630Z AUTO 10004KT 9999 NSC 20/09 Q1020